EW2323 Weather Reports


Display with metric or nautical units.
time (UTC)temp
F
wind
direction
speed
MPH
gust
MPH
rain 1hr
in
rain 24hr
in
rain mn
in
humidity
%
barometer
mb
20220707044529 76 244 0.0 0.0 0.00 0.14 0.00 98 1012.6
20220707043025 76 244 0.0 0.0 0.00 0.14 0.00 98 1012.6
20220707041520 76 244 0.0 0.0 0.00 0.14 0.00 98 1012.7
20220707040018 76 244 0.0 0.0 0.00 0.14 0.00 98 1012.6
20220707034522 76 244 0.0 0.0 0.00 0.14 0.14 98 1012.8
20220707033017 76 244 0.0 0.0 0.00 0.14 0.14 98 1012.9
20220707031517 76 244 0.0 0.0 0.00 0.14 0.14 98 1012.9
20220707030016 76 244 0.0 0.0 0.00 0.14 0.14 98 1012.9
20220707024521 76 244 0.0 0.0 0.00 0.14 0.14 98 1012.6
20220707023028 76 244 0.0 0.0 0.00 0.14 0.14 98 1012.5
20220707021514 76 244 0.0 0.0 0.00 0.14 0.14 98 1012.3
20220707020014 76 244 0.0 0.0 0.00 0.14 0.14 98 1012.2
20220707014531 77 244 0.0 0.0 0.00 0.14 0.14 97 1012.1
20220707013014 77 244 0.0 0.0 0.00 0.14 0.14 97 1012.0
20220707011523 77 244 0.0 0.0 0.00 0.14 0.14 97 1012.0
20220707010012 77 244 0.0 0.0 0.00 0.14 0.14 97 1011.9
20220707004515 78 244 0.0 0.0 0.00 0.14 0.14 97 1011.8
20220707003012 78 244 0.0 0.0 0.00 0.14 0.14 98 1011.7
20220707001511 78 244 0.0 0.0 0.00 0.14 0.14 98 1011.5
20220707000010 78 244 0.0 0.0 0.00 0.14 0.14 98 1011.4
20220706234510 78 244 0.0 0.0 0.00 0.14 0.14 97 1011.2
20220706233012 78 244 0.0 0.0 0.00 0.14 0.14 98 1011.3
20220706231509 78 244 0.0 0.0 0.00 0.14 0.14 98 1011.3
20220706230008 77 244 0.0 0.0 0.00 0.14 0.14 98 1011.2
20220706224507 77 244 0.0 1.0 0.00 0.14 0.14 98 1011.3
20220706223008 77 236 0.0 1.0 0.00 0.14 0.14 98 1011.6
20220706221506 77 250 0.0 0.0 0.00 0.14 0.14 97 1011.7
20220706220007 76 250 0.0 0.0 0.00 0.14 0.14 97 1011.9
20220706214506 76 250 0.0 0.0 0.00 0.14 0.14 97 1012.0
20220706213013 75 250 0.0 0.0 0.00 0.14 0.14 95 1011.2
20220706211505 75 250 0.0 0.0 0.00 0.14 0.14 94 1011.5
20220706210002 75 250 0.0 0.0 0.02 0.14 0.14 93 1011.6
20220706204500 75 250 0.0 0.0 0.14 0.14 0.14 90 1011.4
20220706203058 76 250 0.0 0.0 0.14 0.14 0.14 88 1011.2
20220706201554 78 250 0.0 0.0 0.14 0.14 0.14 84 1011.4
20220706200104 80 250 0.0 21.0 0.12 0.12 0.12 79 1011.9
20220706194553 84 236 3.0 13.0 0.00 0.00 0.00 69 1012.6
20220706193050 88 337 3.0 14.0 0.00 0.00 0.00 61 1011.0
20220706191548 96 321 5.0 12.0 0.00 0.00 0.00 52 1011.2
20220706190047 97 153 1.0 5.0 0.00 0.00 0.00 57 1009.6
20220706184544 96 208 0.0 6.0 0.00 0.00 0.00 61 1009.9
20220706183041 96 196 1.0 3.0 0.00 0.00 0.00 58 1010.6
20220706181537 95 219 0.0 4.0 0.00 0.00 0.00 61 1010.5
20220706180033 94 243 0.0 3.0 0.00 0.00 0.00 62 1010.8
20220706174536 94 257 0.0 3.0 0.00 0.00 0.00 59 1011.1
20220706173039 94 241 1.0 6.0 0.00 0.00 0.00 62 1011.2
20220706171527 93 336 0.0 2.0 0.00 0.00 0.00 66 1011.2
20220706170034 92 313 0.0 4.0 0.00 0.00 0.00 64 1011.6
20220706164529 92 300 1.0 3.0 0.00 0.00 0.00 65 1011.7
20220706163018 92 266 0.0 2.0 0.00 0.00 0.00 66 1011.8
20220706161513 91 180 0.0 2.0 0.00 0.00 0.00 71 1012.1
20220706160010 90 177 0.0 2.0 0.00 0.00 0.00 71 1012.3
20220706154507 89 334 0.0 3.0 0.00 0.00 0.00 72 1012.3
20220706153005 89 339 0.0 2.0 0.00 0.00 0.00 72 1012.3
20220706151501 88 298 1.0 3.0 0.00 0.00 0.00 75 1012.2
20220706150103 87 224 0.0 4.0 0.00 0.00 0.00 76 1012.2
20220706144555 86 216 1.0 4.0 0.00 0.00 0.00 77 1012.4
20220706143051 85 245 0.0 3.0 0.00 0.00 0.00 81 1012.4
20220706141549 84 253 0.0 2.0 0.00 0.00 0.00 80 1012.5
20220706140045 84 253 0.0 3.0 0.00 0.00 0.00 82 1012.4
20220706134543 83 267 0.0 1.0 0.00 0.00 0.00 83 1012.5
20220706133037 83 267 0.0 2.0 0.00 0.00 0.00 83 1012.4
20220706131535 82 267 0.0 1.0 0.00 0.00 0.00 85 1012.3
20220706130038 82 267 0.0 0.0 0.00 0.00 0.00 85 1012.5
20220706124529 81 267 0.0 1.0 0.00 0.00 0.00 86 1012.5
20220706123025 81 267 0.0 1.0 0.00 0.00 0.00 87 1012.4
20220706121523 80 174 0.0 0.0 0.00 0.00 0.00 87 1012.3
20220706120020 80 174 0.0 3.0 0.00 0.00 0.00 88 1012.1
20220706114519 80 215 0.0 1.0 0.00 0.00 0.00 88 1012.1
20220706113018 79 213 0.0 1.0 0.00 0.00 0.00 88 1012.1
20220706111516 79 213 0.0 1.0 0.00 0.00 0.00 88 1012.1
20220706110013 79 213 0.0 2.0 0.00 0.00 0.00 88 1012.0
20220706104511 78 213 0.0 1.0 0.00 0.00 0.00 88 1011.9
20220706103012 78 213 0.0 1.0 0.00 0.00 0.00 89 1011.9
20220706101514 78 213 0.0 1.0 0.00 0.00 0.00 89 1011.7
20220706100009 78 199 0.0 0.0 0.00 0.00 0.00 89 1011.6
20220706094516 78 199 0.0 0.0 0.00 0.00 0.00 89 1011.7
20220706093008 78 199 0.0 0.0 0.00 0.00 0.00 88 1011.6
20220706091506 78 199 0.0 0.0 0.00 0.00 0.00 88 1011.5
20220706090004 79 199 0.0 0.0 0.00 0.00 0.00 88 1011.5
20220706084503 79 199 0.0 0.0 0.00 0.00 0.00 88 1011.3
20220706083003 79 199 0.0 0.0 0.00 0.00 0.00 88 1011.5
20220706081601 79 199 0.0 0.0 0.00 0.00 0.00 87 1011.7
20220706080058 79 199 0.0 0.0 0.00 0.00 0.00 86 1011.7
20220706074602 79 199 0.0 0.0 0.00 0.00 0.00 86 1011.7
20220706073057 80 199 0.0 0.0 0.00 0.00 0.00 85 1011.6
20220706071553 80 199 0.0 0.0 0.00 0.00 0.00 84 1011.5
20220706070054 81 199 0.0 0.0 0.00 0.00 0.00 84 1011.6
20220706064548 81 199 0.0 0.0 0.00 0.00 0.00 82 1011.7
20220706063046 82 199 0.0 0.0 0.00 0.00 0.00 81 1011.5
20220706061544 82 199 0.0 0.0 0.00 0.00 0.00 81 1011.4
20220706060042 83 199 0.0 0.0 0.00 0.00 0.00 80 1011.3
20220706054540 83 199 0.0 0.0 0.00 0.00 0.00 79 1011.2
20220706053055 83 199 0.0 0.0 0.00 0.00 0.00 79 1011.0
20220706051547 84 199 0.0 0.0 0.00 0.00 0.00 78 1011.0
20220706050035 84 199 0.0 0.0 0.00 0.00 0.00 78 1011.1